createdAt,value
2023-04-02T00:03:57.319Z,8.00
2023-04-02T00:09:21.077Z,7.70
2023-04-02T00:14:33.880Z,7.90
2023-04-02T00:19:59.858Z,7.90
2023-04-02T00:25:11.342Z,7.70
2023-04-02T00:30:18.501Z,7.70
2023-04-02T00:35:32.006Z,7.90
2023-04-02T00:40:41.769Z,8.10
2023-04-02T00:45:52.966Z,8.10
2023-04-02T00:51:12.903Z,8.10
2023-04-02T00:56:29.900Z,8.00
2023-04-02T01:01:40.805Z,7.60
2023-04-02T01:06:49.786Z,7.60
2023-04-02T01:12:19.372Z,7.60
2023-04-02T01:18:02.361Z,7.70
2023-04-02T01:23:17.654Z,7.80
2023-04-02T01:28:32.447Z,7.60
2023-04-02T01:33:39.664Z,7.30
2023-04-02T01:39:08.571Z,7.00
2023-04-02T01:44:19.879Z,7.00
2023-04-02T01:49:27.563Z,6.90
2023-04-02T01:54:37.557Z,7.00
2023-04-02T01:59:44.799Z,6.90
2023-04-02T02:04:51.864Z,6.80
2023-04-02T02:09:59.004Z,6.70
2023-04-02T02:15:08.559Z,6.70
2023-04-02T02:20:16.618Z,6.50
2023-04-02T02:25:27.558Z,6.90
2023-04-02T02:30:49.944Z,6.70
2023-04-02T02:36:33.879Z,6.50
2023-04-02T02:42:14.856Z,6.40
2023-04-02T02:47:30.559Z,6.70
2023-04-02T02:52:41.370Z,6.40
2023-04-02T02:57:58.739Z,6.20
2023-04-02T03:03:10.407Z,6.30
2023-04-02T03:08:28.686Z,6.30
2023-04-02T03:13:40.595Z,6.30
2023-04-02T03:19:03.800Z,6.30
2023-04-02T03:24:35.552Z,6.30
2023-04-02T03:29:48.207Z,6.60
2023-04-02T03:34:59.436Z,6.40
2023-04-02T03:40:10.439Z,6.40
2023-04-02T03:45:26.653Z,6.60
2023-04-02T03:50:46.332Z,6.60
2023-04-02T03:55:54.359Z,6.60
2023-04-02T04:01:23.463Z,6.70
2023-04-02T04:06:36.184Z,6.70
2023-04-02T04:11:50.322Z,6.50
2023-04-02T04:17:02.203Z,6.60
2023-04-02T04:22:34.552Z,6.60
2023-04-02T04:27:55.306Z,6.70
2023-04-02T04:33:24.167Z,6.90
2023-04-02T04:38:41.107Z,7.00
2023-04-02T04:44:19.310Z,7.00
2023-04-02T04:49:42.478Z,7.30
2023-04-02T04:54:49.649Z,7.30
2023-04-02T05:00:00.964Z,7.10
2023-04-02T05:05:18.417Z,7.20
2023-04-02T05:10:44.349Z,7.20
2023-04-02T05:16:27.578Z,7.20
2023-04-02T05:21:50.823Z,7.10
2023-04-02T05:27:01.921Z,7.20
2023-04-02T05:32:25.603Z,7.60
2023-04-02T05:37:33.238Z,7.60
2023-04-02T05:42:41.773Z,7.80
2023-04-02T05:47:50.678Z,7.90
2023-04-02T05:53:19.894Z,7.90
2023-04-02T05:58:48.665Z,8.20
2023-04-02T06:04:30.082Z,8.30
2023-04-02T06:09:47.573Z,8.40
2023-04-02T06:14:55.890Z,8.50
2023-04-02T06:20:06.064Z,8.60
2023-04-02T06:25:23.315Z,8.70
2023-04-02T06:30:40.461Z,8.70
2023-04-02T06:35:49.843Z,8.60
2023-04-02T06:41:16.490Z,8.70
2023-04-02T06:46:47.417Z,8.70
2023-04-02T06:51:57.657Z,8.80
2023-04-02T06:57:05.933Z,8.90
2023-04-02T07:02:37.180Z,9.00
2023-04-02T07:07:44.080Z,9.10
2023-04-02T07:12:50.858Z,9.20
2023-04-02T07:17:59.377Z,9.20
2023-04-02T07:23:07.120Z,9.50
2023-04-02T07:28:16.812Z,9.50
2023-04-02T07:33:31.781Z,9.50
2023-04-02T07:38:39.210Z,9.80
2023-04-02T07:43:46.574Z,10.00
2023-04-02T07:48:53.498Z,9.70
2023-04-02T07:54:01.890Z,10.20
2023-04-02T07:59:08.880Z,10.60
2023-04-02T08:04:23.374Z,10.60
2023-04-02T08:09:30.284Z,10.30
2023-04-02T08:14:37.475Z,10.50
2023-04-02T08:19:54.269Z,10.60
2023-04-02T08:24:53.530Z,10.60
2023-04-02T08:30:00.345Z,10.60
2023-04-02T08:35:10.308Z,10.60
2023-04-02T08:40:30.371Z,10.70
2023-04-02T08:45:56.937Z,10.80
2023-04-02T08:51:08.347Z,10.70
2023-04-02T08:56:39.062Z,11.00
2023-04-02T09:01:56.400Z,11.20
2023-04-02T09:07:05.018Z,11.40
2023-04-02T09:12:31.062Z,11.90
2023-04-02T09:17:50.566Z,11.80
2023-04-02T09:22:52.066Z,11.90
2023-04-02T09:28:06.458Z,12.30
2023-04-02T09:33:13.256Z,12.00
2023-04-02T09:38:30.924Z,11.70
2023-04-02T09:43:40.886Z,11.90
2023-04-02T09:48:58.599Z,12.10
2023-04-02T09:54:12.545Z,11.60
2023-04-02T09:59:22.139Z,11.80
2023-04-02T10:04:49.559Z,11.80
2023-04-02T10:10:07.229Z,12.00
2023-04-02T10:15:24.293Z,12.40
2023-04-02T10:20:41.796Z,12.70
2023-04-02T10:25:47.667Z,12.50
2023-04-02T10:31:07.782Z,12.30
2023-04-02T10:36:47.335Z,12.90
2023-04-02T10:42:10.468Z,13.10
2023-04-02T10:47:28.071Z,12.70
2023-04-02T10:52:56.529Z,13.30
2023-04-02T10:58:07.304Z,13.00
2023-04-02T11:03:24.412Z,12.80
2023-04-02T11:08:44.338Z,12.40
2023-04-02T11:13:58.751Z,12.40
2023-04-02T11:19:33.406Z,12.20
2023-04-02T11:24:58.089Z,12.40
2023-04-02T11:30:16.058Z,12.40
2023-04-02T11:35:38.792Z,12.40
2023-04-02T11:40:58.299Z,12.80
2023-04-02T11:46:09.726Z,12.60
2023-04-02T11:51:36.699Z,12.70
2023-04-02T11:57:04.548Z,12.90
2023-04-02T12:02:30.333Z,12.90
2023-04-02T12:08:04.224Z,13.10
2023-04-02T12:13:16.973Z,13.20
2023-04-02T12:18:26.071Z,12.60
2023-04-02T12:23:36.996Z,12.40
2023-04-02T12:28:45.334Z,12.40
2023-04-02T12:33:53.966Z,12.80
2023-04-02T12:39:01.247Z,12.60
2023-04-02T12:44:23.909Z,12.80
2023-04-02T12:49:42.837Z,12.90
2023-04-02T12:54:59.238Z,13.30
2023-04-02T13:00:28.793Z,13.30
2023-04-02T13:05:45.718Z,12.90
2023-04-02T13:11:04.877Z,12.50
2023-04-02T13:16:30.580Z,12.10
2023-04-02T13:21:37.992Z,12.00
2023-04-02T13:26:44.767Z,11.90
2023-04-02T13:31:52.855Z,11.70
2023-04-02T13:37:02.606Z,11.70
2023-04-02T13:42:11.267Z,11.80
2023-04-02T13:47:18.487Z,11.90
2023-04-02T13:52:25.615Z,12.00
2023-04-02T13:57:34.226Z,12.20
2023-04-02T14:02:46.656Z,12.30
2023-04-02T14:08:02.694Z,12.90
2023-04-02T14:13:51.448Z,13.40
2023-04-02T14:19:23.748Z,13.90
2023-04-02T14:24:41.315Z,14.10
2023-04-02T14:30:28.860Z,13.50
2023-04-02T14:35:43.270Z,13.30
2023-04-02T14:41:00.550Z,13.10
2023-04-02T14:46:11.283Z,13.50
2023-04-02T14:51:34.748Z,13.10
2023-04-02T14:56:48.808Z,12.70
2023-04-02T15:02:24.069Z,12.60
2023-04-02T15:07:53.203Z,12.40
2023-04-02T15:13:03.622Z,12.20
2023-04-02T15:18:19.350Z,12.00
2023-04-02T15:23:30.761Z,11.70
2023-04-02T15:28:48.008Z,11.50
2023-04-02T15:34:08.103Z,11.50
2023-04-02T15:39:40.296Z,11.30
2023-04-02T15:45:10.600Z,11.20
2023-04-02T15:50:38.278Z,11.10
2023-04-02T15:56:19.366Z,11.10
2023-04-02T16:01:45.436Z,11.10
2023-04-02T16:07:21.435Z,11.20
2023-04-02T16:12:29.816Z,11.30
2023-04-02T16:17:43.986Z,11.20
2023-04-02T16:23:00.804Z,11.20
2023-04-02T16:28:17.008Z,11.00
2023-04-02T16:33:33.717Z,10.80
2023-04-02T16:39:16.260Z,10.80
2023-04-02T16:44:30.470Z,10.70
2023-04-02T16:50:03.238Z,10.50
2023-04-02T16:55:49.277Z,10.30
2023-04-02T17:01:06.687Z,10.30
2023-04-02T17:06:21.442Z,10.10
2023-04-02T17:11:43.660Z,10.10
2023-04-02T17:17:00.704Z,10.00
2023-04-02T17:22:08.039Z,9.80
2023-04-02T17:27:38.022Z,9.70
2023-04-02T17:32:45.126Z,9.60
2023-04-02T17:38:26.222Z,9.60
2023-04-02T17:43:53.579Z,9.50
2023-04-02T17:49:14.059Z,9.40
2023-04-02T17:54:34.188Z,9.30
2023-04-02T18:00:03.135Z,9.20
2023-04-02T18:05:29.084Z,9.10
2023-04-02T18:11:03.915Z,9.00
2023-04-02T18:16:46.369Z,9.10
2023-04-02T18:22:24.577Z,9.20
2023-04-02T18:27:59.638Z,9.20
2023-04-02T18:33:18.753Z,9.00
2023-04-02T18:38:44.717Z,9.00
2023-04-02T18:44:16.978Z,8.80
2023-04-02T18:49:43.418Z,8.70
2023-04-02T18:55:00.153Z,8.60
2023-04-02T19:00:26.734Z,8.60
2023-04-02T19:05:58.706Z,8.50
2023-04-02T19:11:15.187Z,8.40
2023-04-02T19:16:55.266Z,8.50
2023-04-02T19:22:40.417Z,8.40
2023-04-02T19:28:12.707Z,8.40
2023-04-02T19:33:49.895Z,8.40
2023-04-02T19:39:04.337Z,8.40
2023-04-02T19:44:14.693Z,8.40
2023-04-02T19:49:26.169Z,8.40
2023-04-02T19:54:33.526Z,8.30
2023-04-02T19:59:40.384Z,8.30
2023-04-02T20:04:47.496Z,8.30
2023-04-02T20:09:54.616Z,8.10
2023-04-02T20:15:01.646Z,8.10
2023-04-02T20:20:11.191Z,7.90
2023-04-02T20:25:18.199Z,7.70
2023-04-02T20:30:25.089Z,7.60
2023-04-02T20:35:33.448Z,7.60
2023-04-02T20:40:42.991Z,7.60
2023-04-02T20:46:01.670Z,7.50
2023-04-02T20:51:12.890Z,7.40
2023-04-02T20:56:22.408Z,7.50
2023-04-02T21:01:31.740Z,7.30
2023-04-02T21:06:41.714Z,7.00
2023-04-02T21:11:48.639Z,6.90
2023-04-02T21:16:55.573Z,6.90
2023-04-02T21:22:02.865Z,6.80
2023-04-02T21:27:09.976Z,6.80
2023-04-02T21:32:21.795Z,6.80
2023-04-02T21:37:26.385Z,6.90
2023-04-02T21:42:34.175Z,6.80
2023-04-02T21:47:41.541Z,6.60
2023-04-02T21:52:49.397Z,6.50
2023-04-02T21:57:56.314Z,6.30
2023-04-02T22:03:03.450Z,6.20
2023-04-02T22:08:10.995Z,6.00
2023-04-02T22:13:17.961Z,5.90
2023-04-02T22:18:24.990Z,5.90
2023-04-02T22:23:32.533Z,5.90
2023-04-02T22:28:39.713Z,5.90
2023-04-02T22:33:47.463Z,5.90
2023-04-02T22:38:54.394Z,5.90
2023-04-02T22:44:03.577Z,6.00
2023-04-02T22:49:12.033Z,5.90
2023-04-02T22:54:18.981Z,5.90
2023-04-02T22:59:26.402Z,5.90
2023-04-02T23:04:33.753Z,5.90
2023-04-02T23:09:40.838Z,5.90
2023-04-02T23:14:47.968Z,5.90
2023-04-02T23:19:54.855Z,5.80
2023-04-02T23:25:01.738Z,5.50
2023-04-02T23:30:10.299Z,5.70
2023-04-02T23:35:17.465Z,6.00
2023-04-02T23:40:24.304Z,6.00
2023-04-02T23:45:31.210Z,5.80
2023-04-02T23:50:38.286Z,5.70
2023-04-02T23:55:46.433Z,5.80
